sensor_id;sensor_type;location;lat;lon;timestamp;P1;durP1;ratioP1;P2;durP2;ratioP2
22441;SDS011;11388;54.456;9.752;2022-10-28T00:00:14;4.35;;;2.38;;
22441;SDS011;11388;54.456;9.752;2022-10-28T00:02:40;4.60;;;2.83;;
22441;SDS011;11388;54.456;9.752;2022-10-28T00:05:05;4.93;;;2.50;;
22441;SDS011;11388;54.456;9.752;2022-10-28T00:07:31;7.35;;;2.75;;
22441;SDS011;11388;54.456;9.752;2022-10-28T00:09:57;7.43;;;2.90;;
22441;SDS011;11388;54.456;9.752;2022-10-28T00:12:23;5.13;;;2.58;;
22441;SDS011;11388;54.456;9.752;2022-10-28T00:14:48;6.50;;;2.65;;
22441;SDS011;11388;54.456;9.752;2022-10-28T00:17:14;7.22;;;2.90;;
22441;SDS011;11388;54.456;9.752;2022-10-28T00:19:40;5.80;;;2.92;;
22441;SDS011;11388;54.456;9.752;2022-10-28T00:22:05;7.03;;;3.30;;
22441;SDS011;11388;54.456;9.752;2022-10-28T00:24:31;6.95;;;2.85;;
22441;SDS011;11388;54.456;9.752;2022-10-28T00:26:56;4.95;;;2.95;;
22441;SDS011;11388;54.456;9.752;2022-10-28T00:29:22;6.72;;;2.95;;
22441;SDS011;11388;54.456;9.752;2022-10-28T00:31:48;9.48;;;3.28;;
22441;SDS011;11388;54.456;9.752;2022-10-28T00:34:16;7.13;;;3.25;;
22441;SDS011;11388;54.456;9.752;2022-10-28T00:36:43;6.95;;;3.00;;
22441;SDS011;11388;54.456;9.752;2022-10-28T00:39:11;7.80;;;3.40;;
22441;SDS011;11388;54.456;9.752;2022-10-28T00:41:38;7.00;;;3.05;;
22441;SDS011;11388;54.456;9.752;2022-10-28T00:47:13;7.65;;;3.35;;
22441;SDS011;11388;54.456;9.752;2022-10-28T00:49:39;6.65;;;3.20;;
22441;SDS011;11388;54.456;9.752;2022-10-28T00:54:42;6.55;;;3.17;;
22441;SDS011;11388;54.456;9.752;2022-10-28T00:57:13;5.97;;;2.80;;
22441;SDS011;11388;54.456;9.752;2022-10-28T00:59:46;4.85;;;3.00;;
22441;SDS011;11388;54.456;9.752;2022-10-28T01:02:14;6.18;;;3.20;;
22441;SDS011;11388;54.456;9.752;2022-10-28T01:04:41;6.45;;;3.30;;
22441;SDS011;11388;54.456;9.752;2022-10-28T01:07:08;6.20;;;2.97;;
22441;SDS011;11388;54.456;9.752;2022-10-28T01:09:35;7.10;;;3.70;;
22441;SDS011;11388;54.456;9.752;2022-10-28T01:19:02;6.38;;;3.50;;
22441;SDS011;11388;54.456;9.752;2022-10-28T01:30:19;7.68;;;3.40;;
22441;SDS011;11388;54.456;9.752;2022-10-28T01:35:28;6.72;;;3.50;;
22441;SDS011;11388;54.456;9.752;2022-10-28T01:37:58;6.95;;;3.58;;
22441;SDS011;11388;54.456;9.752;2022-10-28T01:40:34;6.38;;;3.60;;
22441;SDS011;11388;54.456;9.752;2022-10-28T01:43:08;8.05;;;3.80;;
22441;SDS011;11388;54.456;9.752;2022-10-28T01:45:41;6.10;;;3.30;;
22441;SDS011;11388;54.456;9.752;2022-10-28T01:48:35;7.72;;;3.30;;
22441;SDS011;11388;54.456;9.752;2022-10-28T01:51:08;6.82;;;3.85;;
22441;SDS011;11388;54.456;9.752;2022-10-28T01:53:44;6.55;;;3.95;;
22441;SDS011;11388;54.456;9.752;2022-10-28T01:56:14;7.43;;;3.72;;
22441;SDS011;11388;54.456;9.752;2022-10-28T01:58:43;7.10;;;3.80;;
22441;SDS011;11388;54.456;9.752;2022-10-28T02:01:12;8.18;;;3.90;;
22441;SDS011;11388;54.456;9.752;2022-10-28T02:03:38;8.15;;;3.70;;
22441;SDS011;11388;54.456;9.752;2022-10-28T02:06:11;7.60;;;3.30;;
22441;SDS011;11388;54.456;9.752;2022-10-28T02:16:48;6.90;;;4.15;;
22441;SDS011;11388;54.456;9.752;2022-10-28T02:21:53;9.10;;;4.55;;
22441;SDS011;11388;54.456;9.752;2022-10-28T02:32:49;6.95;;;4.28;;
22441;SDS011;11388;54.456;9.752;2022-10-28T02:35:21;8.38;;;4.18;;
22441;SDS011;11388;54.456;9.752;2022-10-28T02:37:54;8.20;;;3.83;;
22441;SDS011;11388;54.456;9.752;2022-10-28T02:40:25;8.88;;;4.32;;
22441;SDS011;11388;54.456;9.752;2022-10-28T02:42:57;7.95;;;4.10;;
22441;SDS011;11388;54.456;9.752;2022-10-28T02:45:46;7.00;;;3.95;;
22441;SDS011;11388;54.456;9.752;2022-10-28T02:48:30;10.82;;;4.60;;
22441;SDS011;11388;54.456;9.752;2022-10-28T02:51:08;8.35;;;4.25;;
22441;SDS011;11388;54.456;9.752;2022-10-28T02:54:02;6.28;;;3.92;;
22441;SDS011;11388;54.456;9.752;2022-10-28T02:56:31;4.75;;;4.00;;
22441;SDS011;11388;54.456;9.752;2022-10-28T02:59:01;7.07;;;4.40;;
22441;SDS011;11388;54.456;9.752;2022-10-28T03:01:27;8.63;;;5.10;;
22441;SDS011;11388;54.456;9.752;2022-10-28T03:03:53;7.70;;;4.40;;
22441;SDS011;11388;54.456;9.752;2022-10-28T03:06:19;8.35;;;4.47;;
22441;SDS011;11388;54.456;9.752;2022-10-28T03:08:44;7.07;;;4.57;;
22441;SDS011;11388;54.456;9.752;2022-10-28T03:11:10;9.07;;;4.35;;
22441;SDS011;11388;54.456;9.752;2022-10-28T03:13:36;7.43;;;4.43;;
22441;SDS011;11388;54.456;9.752;2022-10-28T03:16:01;7.47;;;4.60;;
22441;SDS011;11388;54.456;9.752;2022-10-28T03:18:27;9.20;;;4.90;;
22441;SDS011;11388;54.456;9.752;2022-10-28T03:20:53;8.50;;;5.00;;
22441;SDS011;11388;54.456;9.752;2022-10-28T03:23:18;11.07;;;4.60;;
22441;SDS011;11388;54.456;9.752;2022-10-28T03:25:44;6.70;;;4.50;;
22441;SDS011;11388;54.456;9.752;2022-10-28T03:28:10;10.82;;;4.88;;
22441;SDS011;11388;54.456;9.752;2022-10-28T03:30:35;7.70;;;4.70;;
22441;SDS011;11388;54.456;9.752;2022-10-28T03:33:01;8.65;;;4.50;;
22441;SDS011;11388;54.456;9.752;2022-10-28T03:35:26;8.88;;;4.70;;
22441;SDS011;11388;54.456;9.752;2022-10-28T03:37:52;7.57;;;4.63;;
22441;SDS011;11388;54.456;9.752;2022-10-28T03:40:18;9.82;;;5.65;;
22441;SDS011;11388;54.456;9.752;2022-10-28T03:42:43;9.50;;;5.22;;
22441;SDS011;11388;54.456;9.752;2022-10-28T03:45:09;8.98;;;4.70;;
22441;SDS011;11388;54.456;9.752;2022-10-28T03:47:35;7.57;;;5.18;;
22441;SDS011;11388;54.456;9.752;2022-10-28T03:50:01;9.25;;;5.13;;
22441;SDS011;11388;54.456;9.752;2022-10-28T03:52:27;8.70;;;5.50;;
22441;SDS011;11388;54.456;9.752;2022-10-28T03:54:53;8.05;;;5.50;;
22441;SDS011;11388;54.456;9.752;2022-10-28T03:57:19;10.07;;;6.00;;
22441;SDS011;11388;54.456;9.752;2022-10-28T03:59:44;8.68;;;5.72;;
22441;SDS011;11388;54.456;9.752;2022-10-28T04:02:10;9.93;;;5.40;;
22441;SDS011;11388;54.456;9.752;2022-10-28T04:04:36;10.13;;;5.22;;
22441;SDS011;11388;54.456;9.752;2022-10-28T04:07:01;10.27;;;5.47;;
22441;SDS011;11388;54.456;9.752;2022-10-28T04:09:27;9.50;;;5.47;;
22441;SDS011;11388;54.456;9.752;2022-10-28T04:11:54;9.45;;;5.68;;
22441;SDS011;11388;54.456;9.752;2022-10-28T04:14:20;9.80;;;5.13;;
22441;SDS011;11388;54.456;9.752;2022-10-28T04:16:46;7.93;;;5.00;;
22441;SDS011;11388;54.456;9.752;2022-10-28T04:19:11;8.75;;;5.82;;
22441;SDS011;11388;54.456;9.752;2022-10-28T04:21:37;7.28;;;5.13;;
22441;SDS011;11388;54.456;9.752;2022-10-28T04:24:03;12.60;;;5.00;;
22441;SDS011;11388;54.456;9.752;2022-10-28T04:26:29;7.43;;;4.63;;
22441;SDS011;11388;54.456;9.752;2022-10-28T04:28:55;9.68;;;5.68;;
22441;SDS011;11388;54.456;9.752;2022-10-28T04:31:21;8.80;;;4.90;;
22441;SDS011;11388;54.456;9.752;2022-10-28T04:33:47;7.55;;;4.90;;
22441;SDS011;11388;54.456;9.752;2022-10-28T04:36:13;6.75;;;5.05;;
22441;SDS011;11388;54.456;9.752;2022-10-28T04:38:39;8.18;;;4.97;;
22441;SDS011;11388;54.456;9.752;2022-10-28T04:41:04;9.43;;;5.18;;
22441;SDS011;11388;54.456;9.752;2022-10-28T04:43:30;7.38;;;5.10;;
22441;SDS011;11388;54.456;9.752;2022-10-28T04:45:58;8.20;;;5.07;;
22441;SDS011;11388;54.456;9.752;2022-10-28T04:48:29;8.57;;;4.85;;
22441;SDS011;11388;54.456;9.752;2022-10-28T04:51:11;9.02;;;5.00;;
22441;SDS011;11388;54.456;9.752;2022-10-28T04:53:51;8.43;;;4.85;;
22441;SDS011;11388;54.456;9.752;2022-10-28T05:00:09;8.05;;;4.68;;
22441;SDS011;11388;54.456;9.752;2022-10-28T05:02:37;7.32;;;5.22;;
22441;SDS011;11388;54.456;9.752;2022-10-28T05:05:06;9.95;;;5.97;;
22441;SDS011;11388;54.456;9.752;2022-10-28T05:07:33;8.98;;;5.80;;
22441;SDS011;11388;54.456;9.752;2022-10-28T05:09:58;11.15;;;6.50;;
22441;SDS011;11388;54.456;9.752;2022-10-28T05:12:24;10.75;;;5.55;;
22441;SDS011;11388;54.456;9.752;2022-10-28T05:14:57;11.23;;;5.57;;
22441;SDS011;11388;54.456;9.752;2022-10-28T05:17:23;10.15;;;5.05;;
22441;SDS011;11388;54.456;9.752;2022-10-28T05:19:52;8.57;;;5.78;;
22441;SDS011;11388;54.456;9.752;2022-10-28T05:22:21;8.60;;;5.00;;
22441;SDS011;11388;54.456;9.752;2022-10-28T05:24:46;10.27;;;5.32;;
22441;SDS011;11388;54.456;9.752;2022-10-28T05:27:12;7.05;;;5.07;;
22441;SDS011;11388;54.456;9.752;2022-10-28T05:29:39;9.52;;;5.78;;
22441;SDS011;11388;54.456;9.752;2022-10-28T05:32:05;7.55;;;5.60;;
22441;SDS011;11388;54.456;9.752;2022-10-28T05:34:31;10.35;;;5.90;;
22441;SDS011;11388;54.456;9.752;2022-10-28T05:36:56;10.45;;;6.05;;
22441;SDS011;11388;54.456;9.752;2022-10-28T05:39:22;9.70;;;6.07;;
22441;SDS011;11388;54.456;9.752;2022-10-28T05:41:48;9.80;;;5.50;;
22441;SDS011;11388;54.456;9.752;2022-10-28T05:44:45;9.35;;;5.40;;
22441;SDS011;11388;54.456;9.752;2022-10-28T05:47:11;8.75;;;5.43;;
22441;SDS011;11388;54.456;9.752;2022-10-28T05:49:37;9.18;;;5.82;;
22441;SDS011;11388;54.456;9.752;2022-10-28T05:52:05;12.60;;;5.80;;
22441;SDS011;11388;54.456;9.752;2022-10-28T05:54:31;9.13;;;5.68;;
22441;SDS011;11388;54.456;9.752;2022-10-28T05:57:00;8.27;;;5.68;;
22441;SDS011;11388;54.456;9.752;2022-10-28T05:59:31;10.07;;;5.68;;
22441;SDS011;11388;54.456;9.752;2022-10-28T06:01:59;11.60;;;6.07;;
22441;SDS011;11388;54.456;9.752;2022-10-28T06:04:36;9.23;;;5.72;;
22441;SDS011;11388;54.456;9.752;2022-10-28T06:10:39;10.13;;;5.90;;
22441;SDS011;11388;54.456;9.752;2022-10-28T06:13:05;11.73;;;5.40;;
22441;SDS011;11388;54.456;9.752;2022-10-28T06:15:39;9.80;;;6.05;;
22441;SDS011;11388;54.456;9.752;2022-10-28T06:18:17;10.98;;;5.03;;
22441;SDS011;11388;54.456;9.752;2022-10-28T06:20:55;8.80;;;5.28;;
22441;SDS011;11388;54.456;9.752;2022-10-28T06:26:12;8.65;;;5.15;;
22441;SDS011;11388;54.456;9.752;2022-10-28T06:28:41;11.70;;;5.55;;
22441;SDS011;11388;54.456;9.752;2022-10-28T06:31:11;10.32;;;5.10;;
22441;SDS011;11388;54.456;9.752;2022-10-28T06:33:39;8.65;;;4.80;;
22441;SDS011;11388;54.456;9.752;2022-10-28T06:36:05;9.52;;;5.70;;
22441;SDS011;11388;54.456;9.752;2022-10-28T06:38:54;8.80;;;5.22;;
22441;SDS011;11388;54.456;9.752;2022-10-28T06:41:20;9.05;;;5.20;;
22441;SDS011;11388;54.456;9.752;2022-10-28T06:43:46;11.82;;;5.82;;
22441;SDS011;11388;54.456;9.752;2022-10-28T06:46:14;8.68;;;5.10;;
22441;SDS011;11388;54.456;9.752;2022-10-28T06:48:40;10.70;;;5.93;;
22441;SDS011;11388;54.456;9.752;2022-10-28T06:51:05;8.77;;;4.80;;
22441;SDS011;11388;54.456;9.752;2022-10-28T06:53:31;10.57;;;5.72;;
22441;SDS011;11388;54.456;9.752;2022-10-28T06:55:57;9.27;;;5.53;;
22441;SDS011;11388;54.456;9.752;2022-10-28T06:58:23;9.70;;;5.15;;
22441;SDS011;11388;54.456;9.752;2022-10-28T07:00:50;9.70;;;5.50;;
22441;SDS011;11388;54.456;9.752;2022-10-28T07:03:16;7.20;;;4.93;;
22441;SDS011;11388;54.456;9.752;2022-10-28T07:05:45;9.80;;;5.95;;
22441;SDS011;11388;54.456;9.752;2022-10-28T07:08:13;10.70;;;6.25;;
22441;SDS011;11388;54.456;9.752;2022-10-28T07:10:39;9.98;;;5.85;;
22441;SDS011;11388;54.456;9.752;2022-10-28T07:13:05;9.70;;;5.30;;
22441;SDS011;11388;54.456;9.752;2022-10-28T07:15:31;12.35;;;5.50;;
22441;SDS011;11388;54.456;9.752;2022-10-28T07:18:02;9.25;;;5.00;;
22441;SDS011;11388;54.456;9.752;2022-10-28T07:23:40;10.82;;;5.22;;
22441;SDS011;11388;54.456;9.752;2022-10-28T07:26:06;11.20;;;6.00;;
22441;SDS011;11388;54.456;9.752;2022-10-28T07:28:32;7.38;;;5.25;;
22441;SDS011;11388;54.456;9.752;2022-10-28T07:33:59;9.45;;;5.47;;
22441;SDS011;11388;54.456;9.752;2022-10-28T07:36:27;11.13;;;6.00;;
22441;SDS011;11388;54.456;9.752;2022-10-28T07:38:55;8.82;;;5.63;;
22441;SDS011;11388;54.456;9.752;2022-10-28T07:41:21;10.63;;;6.00;;
22441;SDS011;11388;54.456;9.752;2022-10-28T07:43:50;9.85;;;5.32;;
22441;SDS011;11388;54.456;9.752;2022-10-28T07:46:16;12.18;;;6.22;;
22441;SDS011;11388;54.456;9.752;2022-10-28T07:48:43;16.52;;;7.63;;
22441;SDS011;11388;54.456;9.752;2022-10-28T07:51:16;9.48;;;6.32;;
22441;SDS011;11388;54.456;9.752;2022-10-28T07:53:45;11.18;;;6.28;;
22441;SDS011;11388;54.456;9.752;2022-10-28T07:56:11;10.32;;;6.40;;
22441;SDS011;11388;54.456;9.752;2022-10-28T07:58:37;11.60;;;5.80;;
22441;SDS011;11388;54.456;9.752;2022-10-28T08:01:05;11.68;;;6.00;;
22441;SDS011;11388;54.456;9.752;2022-10-28T08:03:32;10.80;;;4.78;;
22441;SDS011;11388;54.456;9.752;2022-10-28T08:05:59;12.65;;;5.40;;
22441;SDS011;11388;54.456;9.752;2022-10-28T08:08:29;12.93;;;5.00;;
22441;SDS011;11388;54.456;9.752;2022-10-28T08:10:55;10.93;;;5.13;;
22441;SDS011;11388;54.456;9.752;2022-10-28T08:13:20;6.85;;;5.07;;
22441;SDS011;11388;54.456;9.752;2022-10-28T08:15:53;10.32;;;4.72;;
22441;SDS011;11388;54.456;9.752;2022-10-28T08:18:19;9.02;;;4.80;;
22441;SDS011;11388;54.456;9.752;2022-10-28T08:20:46;11.23;;;4.60;;
22441;SDS011;11388;54.456;9.752;2022-10-28T08:23:12;9.45;;;4.50;;
22441;SDS011;11388;54.456;9.752;2022-10-28T08:25:45;8.48;;;4.20;;
22441;SDS011;11388;54.456;9.752;2022-10-28T08:28:12;8.73;;;4.20;;
22441;SDS011;11388;54.456;9.752;2022-10-28T08:30:38;8.48;;;4.60;;
22441;SDS011;11388;54.456;9.752;2022-10-28T08:33:04;9.77;;;4.05;;
22441;SDS011;11388;54.456;9.752;2022-10-28T08:35:29;8.52;;;4.10;;
22441;SDS011;11388;54.456;9.752;2022-10-28T08:37:56;8.63;;;4.50;;
22441;SDS011;11388;54.456;9.752;2022-10-28T08:40:24;13.80;;;4.60;;
22441;SDS011;11388;54.456;9.752;2022-10-28T08:43:06;10.50;;;4.32;;
22441;SDS011;11388;54.456;9.752;2022-10-28T08:45:47;7.72;;;4.20;;
22441;SDS011;11388;54.456;9.752;2022-10-28T08:48:26;7.75;;;3.90;;
22441;SDS011;11388;54.456;9.752;2022-10-28T08:50:58;6.93;;;3.95;;
22441;SDS011;11388;54.456;9.752;2022-10-28T08:53:33;8.07;;;4.03;;
22441;SDS011;11388;54.456;9.752;2022-10-28T08:56:15;7.90;;;3.80;;
22441;SDS011;11388;54.456;9.752;2022-10-28T08:58:49;10.73;;;4.25;;
22441;SDS011;11388;54.456;9.752;2022-10-28T09:04:41;6.60;;;3.50;;
22441;SDS011;11388;54.456;9.752;2022-10-28T09:07:19;6.15;;;3.50;;
22441;SDS011;11388;54.456;9.752;2022-10-28T09:09:47;9.45;;;4.10;;
22441;SDS011;11388;54.456;9.752;2022-10-28T09:20:12;9.75;;;3.63;;
22441;SDS011;11388;54.456;9.752;2022-10-28T09:22:53;7.10;;;3.50;;
22441;SDS011;11388;54.456;9.752;2022-10-28T09:25:43;9.80;;;3.65;;
22441;SDS011;11388;54.456;9.752;2022-10-28T09:28:35;8.45;;;3.60;;
22441;SDS011;11388;54.456;9.752;2022-10-28T09:31:24;7.25;;;3.28;;
22441;SDS011;11388;54.456;9.752;2022-10-28T09:34:34;8.07;;;3.58;;
22441;SDS011;11388;54.456;9.752;2022-10-28T09:37:29;8.40;;;3.50;;
22441;SDS011;11388;54.456;9.752;2022-10-28T09:42:53;7.68;;;3.90;;
22441;SDS011;11388;54.456;9.752;2022-10-28T09:45:42;7.65;;;3.53;;
22441;SDS011;11388;54.456;9.752;2022-10-28T09:48:13;10.35;;;3.53;;
22441;SDS011;11388;54.456;9.752;2022-10-28T09:50:44;9.20;;;3.47;;
22441;SDS011;11388;54.456;9.752;2022-10-28T09:55:44;10.07;;;3.83;;
22441;SDS011;11388;54.456;9.752;2022-10-28T09:58:11;8.57;;;3.10;;
22441;SDS011;11388;54.456;9.752;2022-10-28T10:00:38;9.63;;;3.63;;
22441;SDS011;11388;54.456;9.752;2022-10-28T10:03:04;8.85;;;3.45;;
22441;SDS011;11388;54.456;9.752;2022-10-28T10:05:30;8.73;;;3.60;;
22441;SDS011;11388;54.456;9.752;2022-10-28T10:08:05;13.25;;;3.15;;
22441;SDS011;11388;54.456;9.752;2022-10-28T10:13:03;9.60;;;3.50;;
22441;SDS011;11388;54.456;9.752;2022-10-28T10:15:35;9.98;;;3.38;;
22441;SDS011;11388;54.456;9.752;2022-10-28T10:18:04;8.65;;;3.58;;
22441;SDS011;11388;54.456;9.752;2022-10-28T10:20:45;11.90;;;3.53;;
22441;SDS011;11388;54.456;9.752;2022-10-28T10:23:22;8.70;;;3.28;;
22441;SDS011;11388;54.456;9.752;2022-10-28T10:25:58;11.65;;;3.65;;
22441;SDS011;11388;54.456;9.752;2022-10-28T10:28:27;9.32;;;3.50;;
22441;SDS011;11388;54.456;9.752;2022-10-28T10:30:58;8.43;;;3.72;;
22441;SDS011;11388;54.456;9.752;2022-10-28T10:33:27;10.77;;;3.50;;
22441;SDS011;11388;54.456;9.752;2022-10-28T10:36:19;7.95;;;3.60;;
22441;SDS011;11388;54.456;9.752;2022-10-28T10:39:00;10.18;;;3.83;;
22441;SDS011;11388;54.456;9.752;2022-10-28T10:41:34;11.93;;;3.63;;
22441;SDS011;11388;54.456;9.752;2022-10-28T10:44:37;9.85;;;3.70;;
22441;SDS011;11388;54.456;9.752;2022-10-28T10:49:25;7.15;;;3.10;;
22441;SDS011;11388;54.456;9.752;2022-10-28T10:55:18;12.13;;;3.38;;
22441;SDS011;11388;54.456;9.752;2022-10-28T10:57:54;8.35;;;3.50;;
22441;SDS011;11388;54.456;9.752;2022-10-28T11:00:20;10.18;;;3.38;;
22441;SDS011;11388;54.456;9.752;2022-10-28T11:02:52;9.90;;;3.75;;
22441;SDS011;11388;54.456;9.752;2022-10-28T11:05:21;8.50;;;3.15;;
22441;SDS011;11388;54.456;9.752;2022-10-28T11:07:48;8.45;;;3.15;;
22441;SDS011;11388;54.456;9.752;2022-10-28T11:10:25;10.93;;;3.25;;
22441;SDS011;11388;54.456;9.752;2022-10-28T11:12:57;10.20;;;2.90;;
22441;SDS011;11388;54.456;9.752;2022-10-28T11:15:57;9.70;;;3.30;;
22441;SDS011;11388;54.456;9.752;2022-10-28T11:18:28;12.43;;;3.35;;
22441;SDS011;11388;54.456;9.752;2022-10-28T11:24:36;10.07;;;3.20;;
22441;SDS011;11388;54.456;9.752;2022-10-28T11:27:37;7.88;;;2.75;;
22441;SDS011;11388;54.456;9.752;2022-10-28T11:33:49;9.38;;;3.20;;
22441;SDS011;11388;54.456;9.752;2022-10-28T11:36:38;9.45;;;3.10;;
22441;SDS011;11388;54.456;9.752;2022-10-28T11:39:19;9.02;;;3.20;;
22441;SDS011;11388;54.456;9.752;2022-10-28T11:44:53;14.30;;;3.20;;
22441;SDS011;11388;54.456;9.752;2022-10-28T11:48:32;8.05;;;3.08;;
22441;SDS011;11388;54.456;9.752;2022-10-28T12:07:21;7.93;;;3.00;;
22441;SDS011;11388;54.456;9.752;2022-10-28T12:21:29;9.48;;;3.50;;
22441;SDS011;11388;54.456;9.752;2022-10-28T12:24:14;9.95;;;3.10;;
22441;SDS011;11388;54.456;9.752;2022-10-28T12:26:56;7.80;;;2.90;;
22441;SDS011;11388;54.456;9.752;2022-10-28T12:29:24;8.63;;;3.25;;
22441;SDS011;11388;54.456;9.752;2022-10-28T12:31:57;10.32;;;3.40;;
22441;SDS011;11388;54.456;9.752;2022-10-28T12:34:33;11.77;;;3.50;;
22441;SDS011;11388;54.456;9.752;2022-10-28T12:37:05;11.02;;;3.63;;
22441;SDS011;11388;54.456;9.752;2022-10-28T12:39:45;11.68;;;3.80;;
22441;SDS011;11388;54.456;9.752;2022-10-28T12:42:19;9.75;;;3.50;;
22441;SDS011;11388;54.456;9.752;2022-10-28T12:44:56;12.60;;;4.00;;
22441;SDS011;11388;54.456;9.752;2022-10-28T12:47:26;11.40;;;3.90;;
22441;SDS011;11388;54.456;9.752;2022-10-28T12:50:21;11.15;;;3.72;;
22441;SDS011;11388;54.456;9.752;2022-10-28T12:58:08;8.93;;;3.08;;
22441;SDS011;11388;54.456;9.752;2022-10-28T13:00:42;10.30;;;3.45;;
22441;SDS011;11388;54.456;9.752;2022-10-28T13:03:13;11.48;;;3.35;;
22441;SDS011;11388;54.456;9.752;2022-10-28T13:05:44;10.95;;;3.22;;
22441;SDS011;11388;54.456;9.752;2022-10-28T13:16:39;9.93;;;3.53;;
22441;SDS011;11388;54.456;9.752;2022-10-28T13:22:29;9.50;;;3.80;;
22441;SDS011;11388;54.456;9.752;2022-10-28T13:24:59;13.90;;;3.80;;
22441;SDS011;11388;54.456;9.752;2022-10-28T13:27:41;9.68;;;3.50;;
22441;SDS011;11388;54.456;9.752;2022-10-28T13:30:17;11.98;;;3.70;;
22441;SDS011;11388;54.456;9.752;2022-10-28T13:32:45;9.52;;;3.55;;
22441;SDS011;11388;54.456;9.752;2022-10-28T13:35:20;10.05;;;3.35;;
22441;SDS011;11388;54.456;9.752;2022-10-28T13:37:47;9.70;;;3.50;;
22441;SDS011;11388;54.456;9.752;2022-10-28T13:40:20;10.60;;;3.90;;
22441;SDS011;11388;54.456;9.752;2022-10-28T13:42:55;9.10;;;3.92;;
22441;SDS011;11388;54.456;9.752;2022-10-28T13:58:53;16.83;;;3.80;;
22441;SDS011;11388;54.456;9.752;2022-10-28T14:04:16;12.90;;;3.83;;
22441;SDS011;11388;54.456;9.752;2022-10-28T14:06:47;10.63;;;3.90;;
22441;SDS011;11388;54.456;9.752;2022-10-28T14:09:20;10.60;;;3.78;;
22441;SDS011;11388;54.456;9.752;2022-10-28T14:12:01;12.25;;;3.65;;
22441;SDS011;11388;54.456;9.752;2022-10-28T14:15:41;10.18;;;3.58;;
22441;SDS011;11388;54.456;9.752;2022-10-28T14:17:39;7.78;;;3.50;;
22441;SDS011;11388;54.456;9.752;2022-10-28T14:22:47;10.38;;;3.40;;
22441;SDS011;11388;54.456;9.752;2022-10-28T14:47:33;8.35;;;3.50;;
22441;SDS011;11388;54.456;9.752;2022-10-28T14:52:45;10.15;;;3.50;;
22441;SDS011;11388;54.456;9.752;2022-10-28T14:57:54;10.27;;;3.78;;
22441;SDS011;11388;54.456;9.752;2022-10-28T15:00:40;14.50;;;4.10;;
22441;SDS011;11388;54.456;9.752;2022-10-28T15:03:12;13.60;;;4.97;;
22441;SDS011;11388;54.456;9.752;2022-10-28T15:05:38;12.57;;;4.57;;
22441;SDS011;11388;54.456;9.752;2022-10-28T15:08:04;12.77;;;4.43;;
22441;SDS011;11388;54.456;9.752;2022-10-28T15:13:25;10.95;;;3.80;;
22441;SDS011;11388;54.456;9.752;2022-10-28T15:15:52;8.82;;;3.85;;
22441;SDS011;11388;54.456;9.752;2022-10-28T15:18:22;12.32;;;4.32;;
22441;SDS011;11388;54.456;9.752;2022-10-28T15:21:05;15.32;;;4.47;;
22441;SDS011;11388;54.456;9.752;2022-10-28T15:23:35;9.35;;;4.05;;
22441;SDS011;11388;54.456;9.752;2022-10-28T15:26:11;13.27;;;4.45;;
22441;SDS011;11388;54.456;9.752;2022-10-28T15:28:39;12.52;;;4.07;;
22441;SDS011;11388;54.456;9.752;2022-10-28T15:31:06;8.80;;;3.70;;
22441;SDS011;11388;54.456;9.752;2022-10-28T15:33:39;13.05;;;4.20;;
22441;SDS011;11388;54.456;9.752;2022-10-28T15:38:49;12.35;;;4.22;;
22441;SDS011;11388;54.456;9.752;2022-10-28T15:46:52;9.80;;;4.53;;
22441;SDS011;11388;54.456;9.752;2022-10-28T15:49:35;12.80;;;4.50;;
22441;SDS011;11388;54.456;9.752;2022-10-28T15:52:36;9.93;;;4.13;;
22441;SDS011;11388;54.456;9.752;2022-10-28T15:54:59;12.27;;;4.97;;
22441;SDS011;11388;54.456;9.752;2022-10-28T15:57:28;8.02;;;4.47;;
22441;SDS011;11388;54.456;9.752;2022-10-28T16:02:50;10.00;;;3.90;;
22441;SDS011;11388;54.456;9.752;2022-10-28T16:08:01;11.48;;;4.43;;
22441;SDS011;11388;54.456;9.752;2022-10-28T16:10:35;10.88;;;4.72;;
22441;SDS011;11388;54.456;9.752;2022-10-28T16:15:55;13.05;;;6.78;;
22441;SDS011;11388;54.456;9.752;2022-10-28T16:18:23;14.80;;;6.55;;
22441;SDS011;11388;54.456;9.752;2022-10-28T16:20:51;10.38;;;5.50;;
22441;SDS011;11388;54.456;9.752;2022-10-28T16:23:19;15.00;;;6.03;;
22441;SDS011;11388;54.456;9.752;2022-10-28T16:25:47;10.55;;;5.80;;
22441;SDS011;11388;54.456;9.752;2022-10-28T16:28:18;15.38;;;5.63;;
22441;SDS011;11388;54.456;9.752;2022-10-28T16:30:46;9.55;;;4.90;;
22441;SDS011;11388;54.456;9.752;2022-10-28T16:33:14;9.30;;;5.18;;
22441;SDS011;11388;54.456;9.752;2022-10-28T16:35:43;10.05;;;5.10;;
22441;SDS011;11388;54.456;9.752;2022-10-28T16:38:11;11.55;;;5.07;;
22441;SDS011;11388;54.456;9.752;2022-10-28T16:40:37;11.77;;;5.07;;
22441;SDS011;11388;54.456;9.752;2022-10-28T16:43:04;11.82;;;5.25;;
22441;SDS011;11388;54.456;9.752;2022-10-28T16:45:29;9.88;;;5.00;;
22441;SDS011;11388;54.456;9.752;2022-10-28T16:47:55;11.75;;;5.47;;
22441;SDS011;11388;54.456;9.752;2022-10-28T16:50:21;12.98;;;5.50;;
22441;SDS011;11388;54.456;9.752;2022-10-28T16:52:47;15.65;;;4.80;;
22441;SDS011;11388;54.456;9.752;2022-10-28T16:55:15;10.38;;;4.72;;
22441;SDS011;11388;54.456;9.752;2022-10-28T16:57:42;13.07;;;5.20;;
22441;SDS011;11388;54.456;9.752;2022-10-28T17:00:08;15.20;;;5.55;;
22441;SDS011;11388;54.456;9.752;2022-10-28T17:02:36;15.35;;;5.97;;
22441;SDS011;11388;54.456;9.752;2022-10-28T17:05:05;15.30;;;6.75;;
22441;SDS011;11388;54.456;9.752;2022-10-28T17:07:39;15.77;;;10.50;;
22441;SDS011;11388;54.456;9.752;2022-10-28T17:10:05;16.65;;;9.75;;
22441;SDS011;11388;54.456;9.752;2022-10-28T17:12:31;15.68;;;8.60;;
22441;SDS011;11388;54.456;9.752;2022-10-28T17:14:59;12.80;;;7.82;;
22441;SDS011;11388;54.456;9.752;2022-10-28T17:17:25;10.93;;;7.70;;
22441;SDS011;11388;54.456;9.752;2022-10-28T17:19:51;12.32;;;7.05;;
22441;SDS011;11388;54.456;9.752;2022-10-28T17:22:19;12.25;;;7.38;;
22441;SDS011;11388;54.456;9.752;2022-10-28T17:24:51;13.18;;;6.90;;
22441;SDS011;11388;54.456;9.752;2022-10-28T17:27:18;16.70;;;7.55;;
22441;SDS011;11388;54.456;9.752;2022-10-28T17:29:44;14.00;;;6.88;;
22441;SDS011;11388;54.456;9.752;2022-10-28T17:32:13;11.98;;;7.07;;
22441;SDS011;11388;54.456;9.752;2022-10-28T17:34:39;12.27;;;6.47;;
22441;SDS011;11388;54.456;9.752;2022-10-28T17:37:05;11.20;;;6.07;;
22441;SDS011;11388;54.456;9.752;2022-10-28T17:39:34;12.02;;;6.00;;
22441;SDS011;11388;54.456;9.752;2022-10-28T17:42:03;11.70;;;6.10;;
22441;SDS011;11388;54.456;9.752;2022-10-28T17:44:34;12.48;;;5.78;;
22441;SDS011;11388;54.456;9.752;2022-10-28T17:47:01;12.90;;;6.18;;
22441;SDS011;11388;54.456;9.752;2022-10-28T17:49:31;10.63;;;5.25;;
22441;SDS011;11388;54.456;9.752;2022-10-28T17:52:00;13.52;;;5.40;;
22441;SDS011;11388;54.456;9.752;2022-10-28T17:54:26;12.43;;;5.88;;
22441;SDS011;11388;54.456;9.752;2022-10-28T17:56:58;13.02;;;6.03;;
22441;SDS011;11388;54.456;9.752;2022-10-28T17:59:35;11.52;;;5.63;;
22441;SDS011;11388;54.456;9.752;2022-10-28T18:05:29;12.75;;;6.80;;
22441;SDS011;11388;54.456;9.752;2022-10-28T18:07:59;13.13;;;6.13;;
22441;SDS011;11388;54.456;9.752;2022-10-28T18:10:28;12.05;;;6.68;;
22441;SDS011;11388;54.456;9.752;2022-10-28T18:13:00;14.98;;;7.22;;
22441;SDS011;11388;54.456;9.752;2022-10-28T18:15:26;14.10;;;7.45;;
22441;SDS011;11388;54.456;9.752;2022-10-28T18:17:51;15.98;;;8.27;;
22441;SDS011;11388;54.456;9.752;2022-10-28T18:20:17;16.67;;;8.25;;
22441;SDS011;11388;54.456;9.752;2022-10-28T18:22:46;16.98;;;8.52;;
22441;SDS011;11388;54.456;9.752;2022-10-28T18:25:14;20.15;;;10.65;;
22441;SDS011;11388;54.456;9.752;2022-10-28T18:27:39;18.85;;;9.88;;
22441;SDS011;11388;54.456;9.752;2022-10-28T18:30:10;17.38;;;8.13;;
22441;SDS011;11388;54.456;9.752;2022-10-28T18:32:36;15.93;;;7.57;;